sensor_id;sensor_type;location;lat;lon;timestamp;P1;durP1;ratioP1;P2;durP2;ratioP2
73919;SDS011;62266;53.348;-1.496;2023-06-14T00:06:30;6.90;;;3.77;;
73919;SDS011;62266;53.348;-1.496;2023-06-14T00:09:18;8.68;;;4.00;;
73919;SDS011;62266;53.348;-1.496;2023-06-14T00:12:02;10.85;;;3.90;;
73919;SDS011;62266;53.348;-1.496;2023-06-14T00:14:47;6.85;;;3.67;;
73919;SDS011;62266;53.348;-1.496;2023-06-14T00:44:29;8.20;;;4.22;;
73919;SDS011;62266;53.348;-1.496;2023-06-14T00:47:14;7.77;;;4.37;;
73919;SDS011;62266;53.348;-1.496;2023-06-14T00:49:58;7.47;;;4.10;;
73919;SDS011;62266;53.348;-1.496;2023-06-14T00:58:08;9.70;;;4.78;;
73919;SDS011;62266;53.348;-1.496;2023-06-14T01:00:55;7.97;;;4.77;;
73919;SDS011;62266;53.348;-1.496;2023-06-14T01:03:40;8.80;;;4.85;;
73919;SDS011;62266;53.348;-1.496;2023-06-14T01:06:31;13.23;;;5.05;;
73919;SDS011;62266;53.348;-1.496;2023-06-14T01:09:37;9.18;;;4.80;;
73919;SDS011;62266;53.348;-1.496;2023-06-14T01:15:51;7.27;;;4.40;;
73919;SDS011;62266;53.348;-1.496;2023-06-14T01:18:36;9.43;;;4.95;;
73919;SDS011;62266;53.348;-1.496;2023-06-14T01:21:21;10.07;;;4.60;;
73919;SDS011;62266;53.348;-1.496;2023-06-14T01:26:50;13.38;;;5.00;;
73919;SDS011;62266;53.348;-1.496;2023-06-14T01:32:21;9.60;;;5.30;;
73919;SDS011;62266;53.348;-1.496;2023-06-14T01:35:05;8.55;;;5.05;;
73919;SDS011;62266;53.348;-1.496;2023-06-14T02:02:10;8.63;;;4.72;;
73919;SDS011;62266;53.348;-1.496;2023-06-14T02:04:56;7.72;;;4.80;;
73919;SDS011;62266;53.348;-1.496;2023-06-14T02:07:44;6.07;;;4.70;;
73919;SDS011;62266;53.348;-1.496;2023-06-14T02:10:30;9.07;;;4.90;;
73919;SDS011;62266;53.348;-1.496;2023-06-14T02:13:16;7.80;;;5.00;;
73919;SDS011;62266;53.348;-1.496;2023-06-14T02:45:57;8.02;;;5.18;;
73919;SDS011;62266;53.348;-1.496;2023-06-14T02:48:41;9.02;;;5.32;;
73919;SDS011;62266;53.348;-1.496;2023-06-14T02:51:26;8.13;;;5.07;;
73919;SDS011;62266;53.348;-1.496;2023-06-14T02:54:10;7.85;;;4.65;;
73919;SDS011;62266;53.348;-1.496;2023-06-14T02:57:02;14.27;;;5.40;;
73919;SDS011;62266;53.348;-1.496;2023-06-14T02:59:54;8.65;;;5.18;;
73919;SDS011;62266;53.348;-1.496;2023-06-14T03:02:40;8.80;;;5.13;;
73919;SDS011;62266;53.348;-1.496;2023-06-14T03:10:43;8.00;;;5.70;;
73919;SDS011;62266;53.348;-1.496;2023-06-14T03:13:28;10.00;;;5.70;;
73919;SDS011;62266;53.348;-1.496;2023-06-14T03:16:16;8.77;;;5.20;;
73919;SDS011;62266;53.348;-1.496;2023-06-14T03:19:03;8.60;;;5.57;;
73919;SDS011;62266;53.348;-1.496;2023-06-14T03:21:47;7.80;;;5.65;;
73919;SDS011;62266;53.348;-1.496;2023-06-14T03:24:33;9.25;;;5.50;;
73919;SDS011;62266;53.348;-1.496;2023-06-14T03:38:20;6.57;;;4.75;;
73919;SDS011;62266;53.348;-1.496;2023-06-14T03:49:13;7.80;;;4.53;;
73919;SDS011;62266;53.348;-1.496;2023-06-14T03:52:00;7.65;;;4.90;;
73919;SDS011;62266;53.348;-1.496;2023-06-14T04:00:21;10.03;;;4.70;;
73919;SDS011;62266;53.348;-1.496;2023-06-14T04:03:07;6.43;;;4.47;;
73919;SDS011;62266;53.348;-1.496;2023-06-14T04:08:33;6.18;;;4.07;;
73919;SDS011;62266;53.348;-1.496;2023-06-14T04:11:18;7.25;;;3.90;;
73919;SDS011;62266;53.348;-1.496;2023-06-14T04:14:02;6.73;;;4.10;;
73919;SDS011;62266;53.348;-1.496;2023-06-14T04:16:47;6.63;;;4.40;;
73919;SDS011;62266;53.348;-1.496;2023-06-14T04:22:16;7.25;;;4.40;;
73919;SDS011;62266;53.348;-1.496;2023-06-14T04:25:02;8.38;;;4.00;;
73919;SDS011;62266;53.348;-1.496;2023-06-14T04:44:01;8.18;;;3.90;;
73919;SDS011;62266;53.348;-1.496;2023-06-14T04:46:47;8.57;;;4.30;;
73919;SDS011;62266;53.348;-1.496;2023-06-14T04:49:32;8.20;;;3.95;;
73919;SDS011;62266;53.348;-1.496;2023-06-14T04:52:17;7.05;;;4.13;;
73919;SDS011;62266;53.348;-1.496;2023-06-14T04:55:04;6.90;;;4.40;;
73919;SDS011;62266;53.348;-1.496;2023-06-14T05:00:42;6.80;;;3.80;;
73919;SDS011;62266;53.348;-1.496;2023-06-14T05:06:09;8.52;;;3.83;;
73919;SDS011;62266;53.348;-1.496;2023-06-14T05:09:06;6.60;;;3.87;;
73919;SDS011;62266;53.348;-1.496;2023-06-14T05:17:19;5.00;;;3.50;;
73919;SDS011;62266;53.348;-1.496;2023-06-14T05:20:06;6.05;;;3.83;;
73919;SDS011;62266;53.348;-1.496;2023-06-14T05:22:54;6.10;;;3.77;;
73919;SDS011;62266;53.348;-1.496;2023-06-14T05:25:44;6.43;;;3.70;;
73919;SDS011;62266;53.348;-1.496;2023-06-14T05:28:29;6.38;;;3.75;;
73919;SDS011;62266;53.348;-1.496;2023-06-14T05:31:17;6.93;;;3.80;;
73919;SDS011;62266;53.348;-1.496;2023-06-14T05:36:45;7.67;;;3.77;;
73919;SDS011;62266;53.348;-1.496;2023-06-14T05:39:47;5.15;;;3.70;;
73919;SDS011;62266;53.348;-1.496;2023-06-14T05:42:32;5.80;;;3.25;;
73919;SDS011;62266;53.348;-1.496;2023-06-14T05:45:19;4.70;;;3.50;;
73919;SDS011;62266;53.348;-1.496;2023-06-14T05:48:04;9.02;;;3.65;;
73919;SDS011;62266;53.348;-1.496;2023-06-14T05:50:49;6.10;;;3.60;;
73919;SDS011;62266;53.348;-1.496;2023-06-14T05:53:41;7.40;;;3.70;;
73919;SDS011;62266;53.348;-1.496;2023-06-14T05:56:30;6.80;;;4.03;;
73919;SDS011;62266;53.348;-1.496;2023-06-14T05:59:17;8.02;;;3.67;;
73919;SDS011;62266;53.348;-1.496;2023-06-14T06:02:02;7.10;;;3.72;;
73919;SDS011;62266;53.348;-1.496;2023-06-14T06:04:46;7.50;;;3.70;;
73919;SDS011;62266;53.348;-1.496;2023-06-14T06:07:30;5.25;;;4.05;;
73919;SDS011;62266;53.348;-1.496;2023-06-14T06:10:15;6.53;;;3.20;;
73919;SDS011;62266;53.348;-1.496;2023-06-14T06:12:58;6.97;;;3.80;;
73919;SDS011;62266;53.348;-1.496;2023-06-14T06:15:43;6.88;;;3.97;;
73919;SDS011;62266;53.348;-1.496;2023-06-14T06:21:10;6.38;;;3.28;;
73919;SDS011;62266;53.348;-1.496;2023-06-14T06:24:08;5.82;;;3.50;;
73919;SDS011;62266;53.348;-1.496;2023-06-14T06:26:53;5.70;;;3.15;;
73919;SDS011;62266;53.348;-1.496;2023-06-14T06:34:58;8.48;;;3.60;;
73919;SDS011;62266;53.348;-1.496;2023-06-14T06:37:46;5.30;;;3.22;;
73919;SDS011;62266;53.348;-1.496;2023-06-14T06:40:30;7.22;;;3.25;;
73919;SDS011;62266;53.348;-1.496;2023-06-14T06:43:14;5.75;;;3.15;;
73919;SDS011;62266;53.348;-1.496;2023-06-14T06:46:00;13.00;;;3.70;;
73919;SDS011;62266;53.348;-1.496;2023-06-14T06:48:44;6.20;;;3.10;;
73919;SDS011;62266;53.348;-1.496;2023-06-14T06:51:24;11.80;;;3.70;;
73919;SDS011;62266;53.348;-1.496;2023-06-14T06:54:09;6.82;;;3.75;;
73919;SDS011;62266;53.348;-1.496;2023-06-14T06:56:53;6.22;;;3.60;;
73919;SDS011;62266;53.348;-1.496;2023-06-14T06:59:37;8.53;;;3.53;;
73919;SDS011;62266;53.348;-1.496;2023-06-14T07:02:21;5.68;;;3.47;;
73919;SDS011;62266;53.348;-1.496;2023-06-14T07:05:07;9.45;;;3.67;;
73919;SDS011;62266;53.348;-1.496;2023-06-14T07:07:51;6.63;;;3.83;;
73919;SDS011;62266;53.348;-1.496;2023-06-14T07:10:36;7.47;;;3.20;;
73919;SDS011;62266;53.348;-1.496;2023-06-14T07:13:42;14.50;;;4.23;;
73919;SDS011;62266;53.348;-1.496;2023-06-14T07:16:34;6.43;;;3.40;;
73919;SDS011;62266;53.348;-1.496;2023-06-14T07:19:19;8.43;;;4.00;;
73919;SDS011;62266;53.348;-1.496;2023-06-14T07:22:09;8.32;;;3.65;;
73919;SDS011;62266;53.348;-1.496;2023-06-14T07:24:53;7.80;;;4.15;;
73919;SDS011;62266;53.348;-1.496;2023-06-14T07:27:38;9.53;;;4.07;;
73919;SDS011;62266;53.348;-1.496;2023-06-14T07:30:23;15.68;;;3.63;;
73919;SDS011;62266;53.348;-1.496;2023-06-14T07:33:09;8.38;;;3.42;;
73919;SDS011;62266;53.348;-1.496;2023-06-14T07:35:58;9.20;;;4.30;;
73919;SDS011;62266;53.348;-1.496;2023-06-14T07:38:48;6.00;;;3.80;;
73919;SDS011;62266;53.348;-1.496;2023-06-14T07:44:19;8.10;;;3.83;;
73919;SDS011;62266;53.348;-1.496;2023-06-14T08:03:21;11.23;;;4.90;;
73919;SDS011;62266;53.348;-1.496;2023-06-14T08:19:53;8.82;;;3.80;;
73919;SDS011;62266;53.348;-1.496;2023-06-14T08:22:43;8.33;;;3.60;;
73919;SDS011;62266;53.348;-1.496;2023-06-14T08:28:23;8.07;;;3.40;;
73919;SDS011;62266;53.348;-1.496;2023-06-14T08:33:54;9.50;;;4.03;;
73919;SDS011;62266;53.348;-1.496;2023-06-14T08:36:38;10.70;;;4.73;;
73919;SDS011;62266;53.348;-1.496;2023-06-14T08:39:23;9.35;;;4.07;;
73919;SDS011;62266;53.348;-1.496;2023-06-14T08:42:11;10.07;;;3.90;;
73919;SDS011;62266;53.348;-1.496;2023-06-14T08:44:56;12.57;;;3.78;;
73919;SDS011;62266;53.348;-1.496;2023-06-14T08:47:46;8.57;;;3.25;;
73919;SDS011;62266;53.348;-1.496;2023-06-14T08:50:35;8.07;;;3.50;;
73919;SDS011;62266;53.348;-1.496;2023-06-14T08:53:20;9.80;;;3.47;;
73919;SDS011;62266;53.348;-1.496;2023-06-14T08:56:05;8.48;;;3.63;;
73919;SDS011;62266;53.348;-1.496;2023-06-14T08:58:57;6.57;;;3.70;;
73919;SDS011;62266;53.348;-1.496;2023-06-14T09:01:46;5.95;;;3.47;;
73919;SDS011;62266;53.348;-1.496;2023-06-14T09:04:32;8.00;;;3.83;;
73919;SDS011;62266;53.348;-1.496;2023-06-14T09:07:17;7.22;;;3.47;;
73919;SDS011;62266;53.348;-1.496;2023-06-14T09:10:09;14.00;;;3.90;;
73919;SDS011;62266;53.348;-1.496;2023-06-14T09:13:03;8.73;;;3.60;;
73919;SDS011;62266;53.348;-1.496;2023-06-14T09:15:48;10.07;;;3.88;;
73919;SDS011;62266;53.348;-1.496;2023-06-14T09:18:36;8.37;;;3.63;;
73919;SDS011;62266;53.348;-1.496;2023-06-14T09:21:24;7.25;;;3.00;;
73919;SDS011;62266;53.348;-1.496;2023-06-14T09:24:13;13.52;;;4.50;;
73919;SDS011;62266;53.348;-1.496;2023-06-14T09:26:58;15.52;;;3.95;;
73919;SDS011;62266;53.348;-1.496;2023-06-14T09:29:44;9.48;;;3.63;;
73919;SDS011;62266;53.348;-1.496;2023-06-14T09:32:29;11.57;;;3.30;;
73919;SDS011;62266;53.348;-1.496;2023-06-14T09:35:20;8.27;;;3.35;;
73919;SDS011;62266;53.348;-1.496;2023-06-14T09:38:07;10.55;;;3.50;;
73919;SDS011;62266;53.348;-1.496;2023-06-14T09:40:56;8.02;;;3.15;;
73919;SDS011;62266;53.348;-1.496;2023-06-14T09:43:43;9.90;;;3.08;;
73919;SDS011;62266;53.348;-1.496;2023-06-14T09:46:30;4.93;;;3.10;;
73919;SDS011;62266;53.348;-1.496;2023-06-14T09:49:16;6.22;;;2.80;;
73919;SDS011;62266;53.348;-1.496;2023-06-14T09:52:01;13.05;;;3.08;;
73919;SDS011;62266;53.348;-1.496;2023-06-14T09:54:47;11.52;;;3.45;;
73919;SDS011;62266;53.348;-1.496;2023-06-14T09:57:35;8.95;;;3.00;;
73919;SDS011;62266;53.348;-1.496;2023-06-14T10:00:20;8.83;;;3.00;;
73919;SDS011;62266;53.348;-1.496;2023-06-14T10:03:13;5.97;;;2.63;;
73919;SDS011;62266;53.348;-1.496;2023-06-14T10:06:05;4.97;;;2.60;;
73919;SDS011;62266;53.348;-1.496;2023-06-14T10:08:52;6.95;;;2.65;;
73919;SDS011;62266;53.348;-1.496;2023-06-14T10:11:46;8.77;;;3.13;;
73919;SDS011;62266;53.348;-1.496;2023-06-14T10:14:30;6.63;;;2.63;;
73919;SDS011;62266;53.348;-1.496;2023-06-14T10:18:03;8.20;;;3.15;;
73919;SDS011;62266;53.348;-1.496;2023-06-14T10:20:30;6.70;;;2.65;;
73919;SDS011;62266;53.348;-1.496;2023-06-14T10:23:23;7.25;;;2.92;;
73919;SDS011;62266;53.348;-1.496;2023-06-14T10:26:08;6.53;;;2.78;;
73919;SDS011;62266;53.348;-1.496;2023-06-14T10:29:01;6.03;;;2.90;;
73919;SDS011;62266;53.348;-1.496;2023-06-14T10:31:50;8.65;;;2.97;;
73919;SDS011;62266;53.348;-1.496;2023-06-14T10:34:42;5.63;;;2.60;;
73919;SDS011;62266;53.348;-1.496;2023-06-14T10:37:29;6.20;;;2.70;;
73919;SDS011;62266;53.348;-1.496;2023-06-14T10:40:47;8.98;;;2.45;;
73919;SDS011;62266;53.348;-1.496;2023-06-14T10:43:24;6.93;;;2.60;;
73919;SDS011;62266;53.348;-1.496;2023-06-14T10:46:15;7.47;;;2.50;;
73919;SDS011;62266;53.348;-1.496;2023-06-14T10:49:01;5.32;;;2.20;;
73919;SDS011;62266;53.348;-1.496;2023-06-14T10:51:50;9.68;;;2.60;;
73919;SDS011;62266;53.348;-1.496;2023-06-14T10:54:36;6.55;;;2.25;;
73919;SDS011;62266;53.348;-1.496;2023-06-14T10:57:39;10.53;;;2.27;;
73919;SDS011;62266;53.348;-1.496;2023-06-14T11:17:18;8.57;;;2.65;;
73919;SDS011;62266;53.348;-1.496;2023-06-14T11:25:28;5.47;;;2.40;;
73919;SDS011;62266;53.348;-1.496;2023-06-14T11:28:13;4.35;;;2.45;;
73919;SDS011;62266;53.348;-1.496;2023-06-14T11:31:03;5.47;;;2.17;;
73919;SDS011;62266;53.348;-1.496;2023-06-14T11:34:08;8.40;;;2.95;;
73919;SDS011;62266;53.348;-1.496;2023-06-14T11:39:44;5.23;;;2.53;;
73919;SDS011;62266;53.348;-1.496;2023-06-14T11:42:35;5.63;;;2.70;;
73919;SDS011;62266;53.348;-1.496;2023-06-14T11:45:20;6.05;;;2.40;;
73919;SDS011;62266;53.348;-1.496;2023-06-14T11:58:45;5.25;;;2.60;;
73919;SDS011;62266;53.348;-1.496;2023-06-14T12:01:31;3.65;;;2.58;;
73919;SDS011;62266;53.348;-1.496;2023-06-14T12:04:23;5.30;;;2.47;;
73919;SDS011;62266;53.348;-1.496;2023-06-14T12:07:11;5.33;;;2.30;;
73919;SDS011;62266;53.348;-1.496;2023-06-14T12:12:56;5.75;;;2.50;;
73919;SDS011;62266;53.348;-1.496;2023-06-14T12:15:43;3.63;;;2.50;;
73919;SDS011;62266;53.348;-1.496;2023-06-14T12:18:36;3.70;;;2.30;;
73919;SDS011;62266;53.348;-1.496;2023-06-14T12:21:26;5.93;;;2.63;;
73919;SDS011;62266;53.348;-1.496;2023-06-14T12:24:12;5.05;;;2.45;;
73919;SDS011;62266;53.348;-1.496;2023-06-14T12:26:57;3.67;;;2.50;;
73919;SDS011;62266;53.348;-1.496;2023-06-14T12:29:58;4.38;;;2.47;;
73919;SDS011;62266;53.348;-1.496;2023-06-14T12:32:48;4.70;;;2.78;;
73919;SDS011;62266;53.348;-1.496;2023-06-14T12:35:35;7.00;;;2.70;;
73919;SDS011;62266;53.348;-1.496;2023-06-14T12:38:19;5.32;;;2.85;;
73919;SDS011;62266;53.348;-1.496;2023-06-14T12:41:07;3.88;;;2.55;;
73919;SDS011;62266;53.348;-1.496;2023-06-14T12:43:52;7.53;;;3.00;;
73919;SDS011;62266;53.348;-1.496;2023-06-14T12:46:36;6.43;;;2.30;;
73919;SDS011;62266;53.348;-1.496;2023-06-14T12:49:23;4.30;;;2.77;;
73919;SDS011;62266;53.348;-1.496;2023-06-14T12:52:13;8.05;;;2.70;;
73919;SDS011;62266;53.348;-1.496;2023-06-14T12:54:57;3.30;;;2.17;;
73919;SDS011;62266;53.348;-1.496;2023-06-14T12:57:42;8.40;;;2.70;;
73919;SDS011;62266;53.348;-1.496;2023-06-14T13:00:27;4.05;;;2.30;;
73919;SDS011;62266;53.348;-1.496;2023-06-14T13:03:13;5.60;;;3.00;;
73919;SDS011;62266;53.348;-1.496;2023-06-14T13:05:58;5.13;;;2.40;;
73919;SDS011;62266;53.348;-1.496;2023-06-14T13:08:42;5.97;;;2.60;;
73919;SDS011;62266;53.348;-1.496;2023-06-14T13:11:27;3.45;;;2.22;;
73919;SDS011;62266;53.348;-1.496;2023-06-14T13:14:12;5.65;;;2.72;;
73919;SDS011;62266;53.348;-1.496;2023-06-14T13:16:56;4.83;;;2.63;;
73919;SDS011;62266;53.348;-1.496;2023-06-14T13:19:41;6.07;;;2.72;;
73919;SDS011;62266;53.348;-1.496;2023-06-14T13:22:28;7.85;;;2.70;;
73919;SDS011;62266;53.348;-1.496;2023-06-14T13:25:13;4.70;;;2.40;;
73919;SDS011;62266;53.348;-1.496;2023-06-14T13:27:57;3.67;;;2.60;;
73919;SDS011;62266;53.348;-1.496;2023-06-14T13:30:42;4.53;;;2.53;;
73919;SDS011;62266;53.348;-1.496;2023-06-14T13:33:26;6.07;;;2.28;;
73919;SDS011;62266;53.348;-1.496;2023-06-14T13:36:11;4.90;;;2.80;;
73919;SDS011;62266;53.348;-1.496;2023-06-14T13:38:55;4.47;;;2.30;;
73919;SDS011;62266;53.348;-1.496;2023-06-14T13:41:42;3.53;;;2.20;;
73919;SDS011;62266;53.348;-1.496;2023-06-14T13:44:26;6.47;;;2.30;;
73919;SDS011;62266;53.348;-1.496;2023-06-14T13:47:11;5.32;;;2.47;;
73919;SDS011;62266;53.348;-1.496;2023-06-14T13:49:56;3.83;;;2.30;;
73919;SDS011;62266;53.348;-1.496;2023-06-14T13:52:40;7.00;;;2.28;;
73919;SDS011;62266;53.348;-1.496;2023-06-14T13:55:26;4.35;;;2.22;;
73919;SDS011;62266;53.348;-1.496;2023-06-14T13:58:13;4.80;;;2.23;;
73919;SDS011;62266;53.348;-1.496;2023-06-14T14:00:58;6.13;;;2.20;;
73919;SDS011;62266;53.348;-1.496;2023-06-14T14:03:43;6.07;;;1.90;;
73919;SDS011;62266;53.348;-1.496;2023-06-14T14:06:31;4.82;;;1.90;;
73919;SDS011;62266;53.348;-1.496;2023-06-14T14:09:16;7.10;;;2.05;;
73919;SDS011;62266;53.348;-1.496;2023-06-14T14:12:01;4.47;;;1.90;;
73919;SDS011;62266;53.348;-1.496;2023-06-14T14:14:46;3.75;;;2.00;;
73919;SDS011;62266;53.348;-1.496;2023-06-14T14:17:30;3.47;;;2.00;;
73919;SDS011;62266;53.348;-1.496;2023-06-14T14:20:15;2.88;;;2.10;;
73919;SDS011;62266;53.348;-1.496;2023-06-14T14:23:01;4.85;;;2.25;;
73919;SDS011;62266;53.348;-1.496;2023-06-14T14:25:46;5.47;;;2.00;;
73919;SDS011;62266;53.348;-1.496;2023-06-14T14:28:31;4.68;;;1.95;;
73919;SDS011;62266;53.348;-1.496;2023-06-14T14:31:16;6.18;;;2.10;;
73919;SDS011;62266;53.348;-1.496;2023-06-14T14:34:01;3.17;;;1.73;;
73919;SDS011;62266;53.348;-1.496;2023-06-14T14:36:51;3.88;;;1.90;;
73919;SDS011;62266;53.348;-1.496;2023-06-14T14:39:34;3.97;;;1.63;;
73919;SDS011;62266;53.348;-1.496;2023-06-14T14:42:18;6.60;;;1.70;;
73919;SDS011;62266;53.348;-1.496;2023-06-14T14:45:03;2.55;;;1.50;;
73919;SDS011;62266;53.348;-1.496;2023-06-14T14:47:47;3.75;;;1.90;;
73919;SDS011;62266;53.348;-1.496;2023-06-14T14:50:32;3.00;;;1.83;;
73919;SDS011;62266;53.348;-1.496;2023-06-14T14:53:17;5.23;;;2.00;;
73919;SDS011;62266;53.348;-1.496;2023-06-14T14:56:02;3.97;;;1.73;;
73919;SDS011;62266;53.348;-1.496;2023-06-14T14:58:46;2.92;;;1.60;;
73919;SDS011;62266;53.348;-1.496;2023-06-14T15:01:32;4.93;;;1.88;;
73919;SDS011;62266;53.348;-1.496;2023-06-14T15:04:17;5.00;;;1.80;;
73919;SDS011;62266;53.348;-1.496;2023-06-14T15:07:01;6.00;;;2.00;;
73919;SDS011;62266;53.348;-1.496;2023-06-14T15:09:46;4.78;;;1.98;;
73919;SDS011;62266;53.348;-1.496;2023-06-14T15:12:34;4.47;;;1.70;;
73919;SDS011;62266;53.348;-1.496;2023-06-14T15:15:18;3.30;;;1.70;;
73919;SDS011;62266;53.348;-1.496;2023-06-14T15:18:03;5.50;;;1.52;;
73919;SDS011;62266;53.348;-1.496;2023-06-14T15:20:47;3.50;;;1.90;;
73919;SDS011;62266;53.348;-1.496;2023-06-14T15:23:31;4.78;;;1.83;;
73919;SDS011;62266;53.348;-1.496;2023-06-14T15:26:16;3.97;;;1.60;;
73919;SDS011;62266;53.348;-1.496;2023-06-14T15:29:00;3.45;;;1.70;;
73919;SDS011;62266;53.348;-1.496;2023-06-14T15:31:44;8.50;;;2.05;;
73919;SDS011;62266;53.348;-1.496;2023-06-14T15:34:28;5.63;;;1.73;;
73919;SDS011;62266;53.348;-1.496;2023-06-14T15:37:13;6.10;;;1.67;;
73919;SDS011;62266;53.348;-1.496;2023-06-14T15:39:57;4.30;;;1.52;;
73919;SDS011;62266;53.348;-1.496;2023-06-14T15:42:42;4.28;;;1.50;;
73919;SDS011;62266;53.348;-1.496;2023-06-14T15:45:26;4.63;;;1.65;;
73919;SDS011;62266;53.348;-1.496;2023-06-14T15:48:10;3.37;;;1.50;;
73919;SDS011;62266;53.348;-1.496;2023-06-14T15:50:55;4.57;;;1.60;;
73919;SDS011;62266;53.348;-1.496;2023-06-14T15:53:39;4.43;;;1.70;;
73919;SDS011;62266;53.348;-1.496;2023-06-14T15:56:24;4.32;;;1.48;;
73919;SDS011;62266;53.348;-1.496;2023-06-14T15:59:09;2.45;;;1.48;;
73919;SDS011;62266;53.348;-1.496;2023-06-14T16:01:53;2.60;;;1.23;;
73919;SDS011;62266;53.348;-1.496;2023-06-14T16:04:38;5.90;;;1.75;;
73919;SDS011;62266;53.348;-1.496;2023-06-14T16:07:22;3.70;;;1.70;;
73919;SDS011;62266;53.348;-1.496;2023-06-14T16:10:07;3.38;;;1.40;;
73919;SDS011;62266;53.348;-1.496;2023-06-14T16:12:51;4.13;;;1.63;;
73919;SDS011;62266;53.348;-1.496;2023-06-14T16:15:36;7.57;;;1.63;;
73919;SDS011;62266;53.348;-1.496;2023-06-14T16:18:20;5.03;;;1.75;;
73919;SDS011;62266;53.348;-1.496;2023-06-14T16:21:05;3.38;;;1.38;;
73919;SDS011;62266;53.348;-1.496;2023-06-14T16:23:52;2.67;;;1.23;;
73919;SDS011;62266;53.348;-1.496;2023-06-14T16:26:37;2.40;;;1.40;;
73919;SDS011;62266;53.348;-1.496;2023-06-14T16:29:22;5.93;;;1.40;;
73919;SDS011;62266;53.348;-1.496;2023-06-14T16:32:06;4.13;;;1.40;;
73919;SDS011;62266;53.348;-1.496;2023-06-14T16:34:52;3.95;;;1.67;;
73919;SDS011;62266;53.348;-1.496;2023-06-14T16:37:36;5.10;;;1.80;;
73919;SDS011;62266;53.348;-1.496;2023-06-14T16:40:20;2.78;;;1.38;;
73919;SDS011;62266;53.348;-1.496;2023-06-14T16:43:05;2.97;;;1.60;;
73919;SDS011;62266;53.348;-1.496;2023-06-14T16:45:50;3.00;;;1.50;;
73919;SDS011;62266;53.348;-1.496;2023-06-14T16:48:34;4.47;;;1.45;;
73919;SDS011;62266;53.348;-1.496;2023-06-14T16:51:18;2.38;;;1.45;;
73919;SDS011;62266;53.348;-1.496;2023-06-14T16:54:02;5.40;;;1.50;;
73919;SDS011;62266;53.348;-1.496;2023-06-14T16:56:47;4.40;;;1.60;;
73919;SDS011;62266;53.348;-1.496;2023-06-14T16:59:32;4.15;;;1.80;;
73919;SDS011;62266;53.348;-1.496;2023-06-14T17:02:17;2.20;;;1.60;;
73919;SDS011;62266;53.348;-1.496;2023-06-14T17:05:02;4.57;;;1.80;;
73919;SDS011;62266;53.348;-1.496;2023-06-14T17:07:46;6.30;;;1.75;;
73919;SDS011;62266;53.348;-1.496;2023-06-14T17:10:30;4.87;;;1.53;;
73919;SDS011;62266;53.348;-1.496;2023-06-14T17:13:15;3.78;;;1.60;;
73919;SDS011;62266;53.348;-1.496;2023-06-14T17:16:00;5.18;;;2.00;;
73919;SDS011;62266;53.348;-1.496;2023-06-14T17:18:45;4.13;;;1.63;;
73919;SDS011;62266;53.348;-1.496;2023-06-14T17:21:29;3.58;;;1.80;;
73919;SDS011;62266;53.348;-1.496;2023-06-14T17:24:13;4.47;;;1.87;;
73919;SDS011;62266;53.348;-1.496;2023-06-14T17:26:57;5.25;;;1.83;;
73919;SDS011;62266;53.348;-1.496;2023-06-14T17:29:42;4.43;;;1.58;;
73919;SDS011;62266;53.348;-1.496;2023-06-14T17:32:26;2.58;;;1.73;;
73919;SDS011;62266;53.348;-1.496;2023-06-14T17:35:10;2.90;;;1.65;;
73919;SDS011;62266;53.348;-1.496;2023-06-14T17:37:57;3.67;;;1.80;;
73919;SDS011;62266;53.348;-1.496;2023-06-14T17:40:42;4.38;;;1.70;;
73919;SDS011;62266;53.348;-1.496;2023-06-14T17:43:26;2.42;;;1.80;;
73919;SDS011;62266;53.348;-1.496;2023-06-14T17:46:10;4.43;;;1.60;;
73919;SDS011;62266;53.348;-1.496;2023-06-14T17:48:54;3.05;;;1.80;;
73919;SDS011;62266;53.348;-1.496;2023-06-14T17:51:38;3.20;;;1.60;;
73919;SDS011;62266;53.348;-1.496;2023-06-14T17:54:23;4.30;;;1.90;;
73919;SDS011;62266;53.348;-1.496;2023-06-14T17:57:07;2.65;;;1.77;;
73919;SDS011;62266;53.348;-1.496;2023-06-14T17:59:52;4.57;;;2.15;;
73919;SDS011;62266;53.348;-1.496;2023-06-14T18:02:38;2.35;;;1.65;;
73919;SDS011;62266;53.348;-1.496;2023-06-14T18:05:23;4.43;;;2.20;;
73919;SDS011;62266;53.348;-1.496;2023-06-14T18:08:09;3.65;;;1.98;;
73919;SDS011;62266;53.348;-1.496;2023-06-14T18:10:53;3.00;;;1.95;;
73919;SDS011;62266;53.348;-1.496;2023-06-14T18:13:38;3.72;;;1.90;;
73919;SDS011;62266;53.348;-1.496;2023-06-14T18:16:22;3.20;;;1.90;;
73919;SDS011;62266;53.348;-1.496;2023-06-14T18:19:06;3.07;;;1.83;;
73919;SDS011;62266;53.348;-1.496;2023-06-14T18:21:51;6.15;;;2.25;;
73919;SDS011;62266;53.348;-1.496;2023-06-14T18:24:35;4.80;;;2.10;;
73919;SDS011;62266;53.348;-1.496;2023-06-14T18:27:20;3.55;;;1.85;;
73919;SDS011;62266;53.348;-1.496;2023-06-14T18:30:05;8.40;;;2.40;;
73919;SDS011;62266;53.348;-1.496;2023-06-14T18:32:49;3.20;;;1.80;;
73919;SDS011;62266;53.348;-1.496;2023-06-14T18:35:33;3.45;;;2.20;;
73919;SDS011;62266;53.348;-1.496;2023-06-14T18:38:17;3.70;;;1.95;;
73919;SDS011;62266;53.348;-1.496;2023-06-14T18:41:02;3.78;;;2.05;;
73919;SDS011;62266;53.348;-1.496;2023-06-14T18:43:52;3.50;;;2.00;;
73919;SDS011;62266;53.348;-1.496;2023-06-14T18:46:36;4.93;;;2.40;;
73919;SDS011;62266;53.348;-1.496;2023-06-14T18:49:21;4.47;;;2.30;;
73919;SDS011;62266;53.348;-1.496;2023-06-14T18:52:06;5.45;;;2.38;;
73919;SDS011;62266;53.348;-1.496;2023-06-14T18:54:50;5.75;;;1.92;;
73919;SDS011;62266;53.348;-1.496;2023-06-14T18:57:34;6.75;;;2.50;;
73919;SDS011;62266;53.348;-1.496;2023-06-14T19:00:18;3.90;;;1.93;;
73919;SDS011;62266;53.348;-1.496;2023-06-14T19:03:03;6.75;;;2.45;;
73919;SDS011;62266;53.348;-1.496;2023-06-14T19:05:47;4.20;;;2.40;;
73919;SDS011;62266;53.348;-1.496;2023-06-14T19:08:31;3.15;;;2.20;;
73919;SDS011;62266;53.348;-1.496;2023-06-14T19:11:16;4.60;;;2.15;;
73919;SDS011;62266;53.348;-1.496;2023-06-14T19:14:01;4.03;;;2.30;;
73919;SDS011;62266;53.348;-1.496;2023-06-14T19:16:45;5.15;;;2.20;;
73919;SDS011;62266;53.348;-1.496;2023-06-14T19:19:31;5.00;;;2.30;;
73919;SDS011;62266;53.348;-1.496;2023-06-14T19:22:16;5.07;;;2.20;;
73919;SDS011;62266;53.348;-1.496;2023-06-14T19:25:00;5.03;;;1.88;;
73919;SDS011;62266;53.348;-1.496;2023-06-14T19:27:48;4.60;;;2.20;;
73919;SDS011;62266;53.348;-1.496;2023-06-14T19:30:32;3.38;;;2.08;;
73919;SDS011;62266;53.348;-1.496;2023-06-14T19:33:17;3.72;;;2.35;;
73919;SDS011;62266;53.348;-1.496;2023-06-14T19:36:01;3.53;;;2.20;;
73919;SDS011;62266;53.348;-1.496;2023-06-14T19:38:45;7.30;;;3.58;;
73919;SDS011;62266;53.348;-1.496;2023-06-14T19:41:30;5.97;;;2.70;;
73919;SDS011;62266;53.348;-1.496;2023-06-14T19:44:14;5.32;;;3.08;;
73919;SDS011;62266;53.348;-1.496;2023-06-14T19:46:59;5.60;;;2.63;;
73919;SDS011;62266;53.348;-1.496;2023-06-14T19:49:44;3.42;;;2.50;;
73919;SDS011;62266;53.348;-1.496;2023-06-14T19:52:28;5.45;;;2.90;;
73919;SDS011;62266;53.348;-1.496;2023-06-14T19:55:12;6.40;;;3.07;;
73919;SDS011;62266;53.348;-1.496;2023-06-14T19:57:56;5.70;;;3.30;;
73919;SDS011;62266;53.348;-1.496;2023-06-14T20:00:40;7.95;;;2.83;;
73919;SDS011;62266;53.348;-1.496;2023-06-14T20:03:24;4.57;;;3.03;;
73919;SDS011;62266;53.348;-1.496;2023-06-14T20:06:08;6.55;;;3.00;;
73919;SDS011;62266;53.348;-1.496;2023-06-14T20:08:54;5.93;;;3.07;;
73919;SDS011;62266;53.348;-1.496;2023-06-14T20:11:39;6.00;;;2.88;;
73919;SDS011;62266;53.348;-1.496;2023-06-14T20:14:23;6.25;;;3.53;;
73919;SDS011;62266;53.348;-1.496;2023-06-14T20:17:07;7.38;;;3.45;;
73919;SDS011;62266;53.348;-1.496;2023-06-14T20:19:51;7.75;;;3.22;;
73919;SDS011;62266;53.348;-1.496;2023-06-14T20:22:36;6.43;;;3.70;;
73919;SDS011;62266;53.348;-1.496;2023-06-14T20:25:21;6.32;;;3.78;;
73919;SDS011;62266;53.348;-1.496;2023-06-14T20:28:05;6.80;;;3.85;;
73919;SDS011;62266;53.348;-1.496;2023-06-14T20:30:49;8.20;;;3.55;;
73919;SDS011;62266;53.348;-1.496;2023-06-14T20:33:34;7.25;;;3.67;;
73919;SDS011;62266;53.348;-1.496;2023-06-14T20:36:19;7.70;;;3.57;;